Time,TemperatureF,DewpointF,PressureIn,WindDirection,WindDirectionDegrees,WindSpeedMPH,WindSpeedGustMPH,Humidity,HourlyPrecipIn,Conditions,Clouds,dailyrainin,SoftwareType,DateUTC
2013-12-17 00:03:00,19.2,16.5,29.88,SW,233,0.0,0.0,89,0.00,,OVC014,0.00,VWS V14.01,2013-12-17 05:03:00,
2013-12-17 00:12:00,19.2,16.5,29.88,SW,233,0.0,0.0,89,0.00,,OVC014,0.00,VWS V14.01,2013-12-17 05:12:00,
2013-12-17 00:18:00,19.4,16.7,29.88,SW,236,0.0,0.0,89,0.00,,OVC014,0.00,VWS V14.01,2013-12-17 05:18:00,
2013-12-17 00:23:00,19.4,16.7,29.88,SW,236,0.0,0.0,89,0.00,,OVC014,0.00,VWS V14.01,2013-12-17 05:23:00,
2013-12-17 00:33:00,19.5,16.8,29.88,WSW,251,0.0,0.0,89,0.00,,OVC014,0.00,VWS V14.01,2013-12-17 05:33:00,
2013-12-17 00:38:00,19.7,17.0,29.88,West,261,0.0,0.0,89,0.00,,OVC014,0.00,VWS V14.01,2013-12-17 05:38:00,
2013-12-17 00:43:00,19.7,17.0,29.88,WSW,246,0.0,0.0,89,0.00,,OVC014,0.00,VWS V14.01,2013-12-17 05:43:00,
2013-12-17 00:53:00,19.9,17.2,29.88,WSW,244,0.0,0.0,89,0.00,,OVC014,0.00,VWS V14.01,2013-12-17 05:53:00,
2013-12-17 00:58:00,20.0,17.3,29.88,SSW,213,0.0,0.0,89,0.00,,OVC014,0.00,VWS V14.01,2013-12-17 05:58:00,
2013-12-17 01:03:00,20.0,17.3,29.87,WSW,253,0.0,0.0,89,0.00,,OVC014,0.00,VWS V14.01,2013-12-17 06:03:00,
2013-12-17 01:07:00,20.0,17.3,29.87,WSW,248,0.0,0.0,89,0.00,,OVC014,0.00,VWS V14.01,2013-12-17 06:07:00,
2013-12-17 01:12:00,20.0,17.3,29.87,WSW,254,0.0,0.0,89,0.00,,OVC014,0.00,VWS V14.01,2013-12-17 06:12:00,
2013-12-17 01:17:00,20.0,17.3,29.88,SW,227,0.0,0.0,89,0.00,,OVC014,0.00,VWS V14.01,2013-12-17 06:17:00,
2013-12-17 01:22:00,20.2,17.5,29.88,West,264,0.0,0.0,89,0.00,,OVC008,0.00,VWS V14.01,2013-12-17 06:22:00,
2013-12-17 01:27:00,20.2,17.5,29.88,WSW,256,0.0,0.0,89,0.00,,OVC008,0.00,VWS V14.01,2013-12-17 06:27:00,
2013-12-17 01:32:00,20.2,17.5,29.87,West,274,0.0,0.0,89,0.00,,OVC008,0.00,VWS V14.01,2013-12-17 06:32:00,
2013-12-17 01:38:00,20.2,17.5,29.87,West,278,0.0,0.0,89,0.00,,OVC008,0.00,VWS V14.01,2013-12-17 06:38:00,
2013-12-17 01:47:00,20.2,17.5,29.86,WSW,248,0.0,0.0,89,0.00,,OVC008,0.00,VWS V14.01,2013-12-17 06:47:00,
2013-12-17 01:52:00,20.2,17.5,29.86,WSW,258,0.0,0.0,89,0.00,,OVC008,0.00,VWS V14.01,2013-12-17 06:52:00,
2013-12-17 01:57:00,20.2,17.5,29.86,West,267,0.0,0.0,89,0.00,,OVC008,0.00,VWS V14.01,2013-12-17 06:57:00,
2013-12-17 02:02:00,20.2,17.5,29.86,WSW,251,0.0,0.0,89,0.00,,OVC008,0.00,VWS V14.01,2013-12-17 07:02:00,
2013-12-17 02:08:00,20.2,17.5,29.86,WSW,253,0.0,0.0,89,0.00,,OVC008,0.00,VWS V14.01,2013-12-17 07:08:00,
2013-12-17 02:17:00,20.2,17.5,29.85,WSW,244,0.0,0.0,89,0.00,,OVC008,0.00,VWS V14.01,2013-12-17 07:17:00,
2013-12-17 02:22:00,20.2,17.5,29.85,SW,226,0.0,0.0,89,0.00,,,0.00,VWS V14.01,2013-12-17 07:22:00,
2013-12-17 02:27:00,20.0,17.3,29.85,WSW,256,0.0,0.0,89,0.00,,,0.00,VWS V14.01,2013-12-17 07:27:00,
2013-12-17 02:33:00,20.0,17.3,29.85,West,270,0.0,0.0,89,0.00,,,0.00,VWS V14.01,2013-12-17 07:33:00,
2013-12-17 02:43:00,20.0,17.3,29.85,WSW,248,0.0,0.0,89,0.00,,,0.00,VWS V14.01,2013-12-17 07:43:00,
2013-12-17 02:53:00,20.0,17.3,29.87,SSW,198,0.0,0.0,89,0.00,,,0.00,VWS V14.01,2013-12-17 07:53:00,
2013-12-17 03:03:00,19.9,17.2,29.87,SW,233,0.0,0.0,89,0.00,,,0.00,VWS V14.01,2013-12-17 08:03:00,
2013-12-17 03:13:00,19.9,17.2,29.87,WSW,247,0.0,0.0,89,0.00,,,0.00,VWS V14.01,2013-12-17 08:13:00,
2013-12-17 03:18:00,19.9,17.2,29.87,West,265,0.0,0.0,89,0.00,,,0.00,VWS V14.01,2013-12-17 08:18:00,
2013-12-17 03:27:00,19.9,17.2,29.87,West,265,0.0,0.0,89,0.00,,,0.00,VWS V14.01,2013-12-17 08:27:00,
2013-12-17 03:32:00,19.9,17.2,29.88,West,265,0.0,0.0,89,0.00,,,0.00,VWS V14.01,2013-12-17 08:32:00,
2013-12-17 03:38:00,19.9,17.2,29.88,WSW,240,0.0,0.0,89,0.00,,,0.00,VWS V14.01,2013-12-17 08:38:00,
2013-12-17 03:47:00,19.9,17.2,29.88,West,263,0.0,0.0,89,0.00,,,0.00,VWS V14.01,2013-12-17 08:47:00,
2013-12-17 03:52:00,19.9,17.2,29.88,West,271,0.0,0.0,89,0.00,,,0.00,VWS V14.01,2013-12-17 08:52:00,
2013-12-17 03:57:00,19.9,17.2,29.88,West,272,0.0,0.0,89,0.00,,,0.00,VWS V14.01,2013-12-17 08:57:00,
2013-12-17 04:03:00,19.9,17.2,29.88,WSW,250,0.0,0.0,89,0.00,,,0.00,VWS V14.01,2013-12-17 09:03:00,
2013-12-17 04:12:00,19.9,17.2,29.88,SW,234,0.0,0.0,89,0.00,,,0.00,VWS V14.01,2013-12-17 09:12:00,
2013-12-17 04:18:00,19.9,17.2,29.88,WSW,243,0.0,0.0,89,0.00,,,0.00,VWS V14.01,2013-12-17 09:18:00,
2013-12-17 04:23:00,19.9,17.2,29.88,WSW,247,0.0,0.0,89,0.00,,,0.00,VWS V14.01,2013-12-17 09:23:00,
2013-12-17 04:32:00,19.9,17.2,29.88,WSW,250,0.0,0.0,89,0.00,,,0.00,VWS V14.01,2013-12-17 09:32:00,
2013-12-17 04:38:00,19.9,17.2,29.88,West,268,0.0,0.0,89,0.00,,,0.00,VWS V14.01,2013-12-17 09:38:00,
2013-12-17 04:47:00,19.9,17.2,29.88,WSW,251,0.0,0.0,89,0.00,,,0.00,VWS V14.01,2013-12-17 09:47:00,
2013-12-17 04:52:00,19.9,17.2,29.88,WSW,247,0.0,0.0,89,0.00,,,0.00,VWS V14.01,2013-12-17 09:52:00,
2013-12-17 04:57:00,19.9,17.2,29.88,WSW,246,0.0,0.0,89,0.00,,,0.00,VWS V14.01,2013-12-17 09:57:00,
2013-12-17 05:03:00,19.9,17.2,29.88,SW,226,0.0,0.0,89,0.00,,,0.00,VWS V14.01,2013-12-17 10:03:00,
2013-12-17 05:08:00,19.9,17.2,29.88,WSW,257,0.0,0.0,89,0.00,,,0.00,VWS V14.01,2013-12-17 10:08:00,
2013-12-17 05:18:00,19.9,17.2,29.88,SW,226,0.0,0.0,89,0.00,,,0.00,VWS V14.01,2013-12-17 10:18:00,
2013-12-17 05:23:00,19.7,17.0,29.88,WSW,254,0.0,0.0,89,0.00,,,0.00,VWS V14.01,2013-12-17 10:23:00,
2013-12-17 05:28:00,19.5,16.8,29.88,WSW,246,0.0,0.0,89,0.00,,,0.00,VWS V14.01,2013-12-17 10:28:00,
2013-12-17 05:33:00,19.2,16.5,29.89,SSE,147,0.0,0.0,89,0.00,,,0.00,VWS V14.01,2013-12-17 10:33:00,
2013-12-17 05:38:00,19.2,16.5,29.89,WSW,258,0.0,0.0,89,0.00,,,0.00,VWS V14.01,2013-12-17 10:38:00,
2013-12-17 05:43:00,19.1,16.4,29.89,SW,224,0.0,0.0,89,0.00,,,0.00,VWS V14.01,2013-12-17 10:43:00,
2013-12-17 05:53:00,18.8,16.1,29.89,SW,220,0.0,0.0,89,0.00,,,0.00,VWS V14.01,2013-12-17 10:53:00,
2013-12-17 06:03:00,18.6,15.9,29.90,WSW,251,0.0,0.0,89,0.00,,,0.00,VWS V14.01,2013-12-17 11:03:00,
2013-12-17 06:07:00,18.4,15.7,29.90,West,264,0.0,0.0,89,0.00,,,0.00,VWS V14.01,2013-12-17 11:07:00,
2013-12-17 06:12:00,18.3,15.6,29.90,WSW,256,0.0,0.0,89,0.00,,,0.00,VWS V14.01,2013-12-17 11:12:00,
2013-12-17 06:17:00,18.3,15.6,29.90,West,280,0.0,0.0,89,0.00,,,0.00,VWS V14.01,2013-12-17 11:17:00,
2013-12-17 06:22:00,18.3,15.6,29.90,West,272,0.0,0.0,89,0.00,,,0.00,VWS V14.01,2013-12-17 11:22:00,
2013-12-17 06:27:00,18.3,15.6,29.90,West,265,0.0,0.0,89,0.00,,,0.00,VWS V14.01,2013-12-17 11:27:00,
2013-12-17 06:32:00,18.3,15.6,29.90,West,263,0.0,0.0,89,0.00,,,0.00,VWS V14.01,2013-12-17 11:32:00,
2013-12-17 06:38:00,18.3,15.6,29.90,WSW,256,0.0,0.0,89,0.00,,,0.00,VWS V14.01,2013-12-17 11:38:00,
2013-12-17 06:47:00,18.1,15.4,29.90,WSW,250,0.0,0.0,89,0.00,,,0.00,VWS V14.01,2013-12-17 11:47:00,
2013-12-17 06:53:00,18.1,15.4,29.90,WSW,253,0.0,0.0,89,0.00,,,0.00,VWS V14.01,2013-12-17 11:53:00,
2013-12-17 07:02:00,18.1,15.4,29.90,WSW,244,0.0,0.0,89,0.00,,,0.00,VWS V14.01,2013-12-17 12:02:00,
2013-12-17 07:08:00,18.1,15.4,29.90,West,263,0.0,0.0,89,0.00,,,0.00,VWS V14.01,2013-12-17 12:08:00,
2013-12-17 07:18:00,18.3,15.6,29.91,WSW,253,0.0,0.0,89,0.00,,,0.00,VWS V14.01,2013-12-17 12:18:00,
2013-12-17 07:23:00,18.3,15.6,29.91,WSW,254,0.0,0.0,89,0.00,,,0.00,VWS V14.01,2013-12-17 12:23:00,
2013-12-17 07:33:00,18.0,15.1,29.91,West,280,0.0,0.0,88,0.00,,,0.00,VWS V14.01,2013-12-17 12:33:00,
2013-12-17 07:42:00,17.8,14.9,29.91,WSW,254,0.0,0.0,88,0.00,,,0.00,VWS V14.01,2013-12-17 12:42:00,
2013-12-17 07:53:00,17.8,14.9,29.91,WSW,251,0.0,0.0,88,0.00,,,0.00,VWS V14.01,2013-12-17 12:53:00,
2013-12-17 08:02:00,18.0,15.3,29.90,SW,216,0.0,0.0,89,0.00,,,0.00,VWS V14.01,2013-12-17 13:02:00,
2013-12-17 08:07:00,18.0,15.3,29.90,SW,224,0.0,0.0,89,0.00,,,0.00,VWS V14.01,2013-12-17 13:07:00,
2013-12-17 08:12:00,17.7,14.8,29.90,SW,219,0.0,0.0,88,0.00,,,0.00,VWS V14.01,2013-12-17 13:12:00,
2013-12-17 08:18:00,17.5,14.6,29.89,SW,233,0.0,0.0,88,0.00,,,0.00,VWS V14.01,2013-12-17 13:18:00,
2013-12-17 08:23:00,17.5,14.6,29.89,SW,227,0.0,0.0,88,0.00,,,0.00,VWS V14.01,2013-12-17 13:23:00,
2013-12-17 08:28:00,17.3,14.4,29.89,SSW,203,0.0,0.0,88,0.00,,,0.00,VWS V14.01,2013-12-17 13:28:00,
2013-12-17 08:33:00,17.0,14.1,29.89,SSW,213,0.0,0.0,88,0.00,,,0.00,VWS V14.01,2013-12-17 13:33:00,
2013-12-17 08:38:00,16.9,14.0,29.89,WSW,241,0.0,0.0,88,0.00,,,0.00,VWS V14.01,2013-12-17 13:38:00,
2013-12-17 08:47:00,17.0,14.1,29.89,SSW,213,0.0,0.0,88,0.00,,,0.00,VWS V14.01,2013-12-17 13:47:00,
2013-12-17 08:52:00,17.0,14.1,29.89,SW,224,0.0,0.0,88,0.00,,,0.00,VWS V14.01,2013-12-17 13:52:00,
2013-12-17 08:57:00,17.2,14.3,29.89,SW,215,0.0,0.0,88,0.00,,,0.00,VWS V14.01,2013-12-17 13:57:00,
2013-12-17 09:03:00,17.3,14.4,29.89,SW,232,0.0,0.0,88,0.00,,,0.00,VWS V14.01,2013-12-17 14:03:00,
2013-12-17 09:13:00,17.2,14.3,29.89,SW,226,0.0,0.0,88,0.00,,,0.00,VWS V14.01,2013-12-17 14:13:00,
2013-12-17 09:23:00,17.2,14.3,29.89,SW,217,0.0,0.0,88,0.00,,,0.00,VWS V14.01,2013-12-17 14:23:00,
2013-12-17 09:32:00,17.2,14.3,29.90,SW,220,0.0,0.0,88,0.00,,,0.00,VWS V14.01,2013-12-17 14:32:00,
2013-12-17 09:37:00,17.2,14.3,29.90,SW,227,0.0,0.0,88,0.00,,,0.00,VWS V14.01,2013-12-17 14:37:00,
2013-12-17 09:43:00,17.3,14.4,29.90,SSW,210,0.0,0.0,88,0.00,,,0.00,VWS V14.01,2013-12-17 14:43:00,
2013-12-17 09:48:00,17.3,14.4,29.90,SW,222,0.0,0.0,88,0.00,,,0.00,VWS V14.01,2013-12-17 14:48:00,
2013-12-17 09:53:00,17.3,14.4,29.90,WSW,243,0.0,0.0,88,0.00,,,0.00,VWS V14.01,2013-12-17 14:53:00,
2013-12-17 09:58:00,17.3,14.4,29.90,WNW,288,0.0,0.0,88,0.00,,,0.00,VWS V14.01,2013-12-17 14:58:00,
2013-12-17 10:08:00,17.5,14.6,29.90,SW,236,0.0,0.0,88,0.00,,,0.00,VWS V14.01,2013-12-17 15:08:00,
2013-12-17 10:17:00,17.7,14.8,29.90,SW,216,0.0,0.0,88,0.00,,,0.00,VWS V14.01,2013-12-17 15:17:00,
2013-12-17 10:23:00,17.7,14.8,29.90,SW,216,0.0,0.0,88,0.00,,,0.00,VWS V14.01,2013-12-17 15:23:00,
2013-12-17 10:28:00,17.8,14.9,29.90,SW,219,0.0,0.0,88,0.00,,,0.00,VWS V14.01,2013-12-17 15:28:00,
2013-12-17 10:33:00,17.8,14.9,29.88,SW,216,0.0,0.0,88,0.00,,,0.00,VWS V14.01,2013-12-17 15:33:00,
2013-12-17 10:38:00,18.0,15.1,29.88,SW,222,0.0,0.0,88,0.00,,,0.00,VWS V14.01,2013-12-17 15:38:00,
2013-12-17 10:43:00,18.1,15.4,29.88,SW,236,0.0,0.0,89,0.00,,,0.00,VWS V14.01,2013-12-17 15:43:00,
2013-12-17 10:48:00,18.1,15.1,29.88,SW,216,0.0,0.0,88,0.00,,,0.00,VWS V14.01,2013-12-17 15:48:00,
2013-12-17 10:53:00,18.3,15.4,29.88,SW,224,0.0,0.0,88,0.00,,,0.00,VWS V14.01,2013-12-17 15:53:00,
2013-12-17 11:03:00,18.4,15.7,29.88,SW,220,0.0,0.0,89,0.00,,,0.00,VWS V14.01,2013-12-17 16:03:00,
2013-12-17 11:07:00,18.4,15.4,29.88,SW,227,0.0,0.0,88,0.00,,,0.00,VWS V14.01,2013-12-17 16:07:00,
2013-12-17 11:12:00,18.6,15.9,29.88,SW,215,0.0,0.0,89,0.00,,,0.00,VWS V14.01,2013-12-17 16:12:00,
2013-12-17 11:17:00,18.8,16.1,29.88,SW,226,0.0,0.0,89,0.00,,,0.00,VWS V14.01,2013-12-17 16:17:00,
2013-12-17 11:22:00,18.8,16.1,29.88,SSW,205,0.0,0.0,89,0.00,,,0.00,VWS V14.01,2013-12-17 16:22:00,
2013-12-17 11:27:00,18.8,16.1,29.88,SW,227,0.0,0.0,89,0.00,,,0.00,VWS V14.01,2013-12-17 16:27:00,
2013-12-17 11:32:00,18.9,16.2,29.87,SW,226,0.0,0.0,89,0.00,,,0.00,VWS V14.01,2013-12-17 16:32:00,
2013-12-17 11:38:00,19.2,16.5,29.87,SSW,213,0.0,0.0,89,0.00,,,0.00,VWS V14.01,2013-12-17 16:38:00,
2013-12-17 11:48:00,19.2,16.5,29.86,SW,215,0.0,0.0,89,0.00,,,0.00,VWS V14.01,2013-12-17 16:48:00,
2013-12-17 11:57:00,19.7,17.0,29.86,WSW,246,0.0,0.0,89,0.00,,,0.00,VWS V14.01,2013-12-17 16:57:00,
2013-12-17 12:03:00,19.9,17.2,29.85,SW,226,0.0,0.0,89,0.00,,,0.00,VWS V14.01,2013-12-17 17:03:00,
2013-12-17 12:08:00,20.0,17.3,29.85,West,268,0.0,0.0,89,0.00,,,0.00,VWS V14.01,2013-12-17 17:08:00,
2013-12-17 12:13:00,20.3,17.6,29.85,SSW,210,0.0,0.0,89,0.00,,,0.00,VWS V14.01,2013-12-17 17:13:00,
2013-12-17 12:18:00,20.3,17.6,29.85,SW,226,0.0,0.0,89,0.00,,,0.00,VWS V14.01,2013-12-17 17:18:00,
2013-12-17 12:23:00,20.3,17.6,29.85,SW,226,0.0,0.0,89,0.00,,,0.00,VWS V14.01,2013-12-17 17:23:00,
2013-12-17 12:33:00,20.3,17.6,29.85,SW,223,0.0,0.0,89,0.00,,,0.00,VWS V14.01,2013-12-17 17:33:00,
2013-12-17 12:43:00,20.2,17.5,29.85,SW,236,0.0,0.0,89,0.00,,,0.00,VWS V14.01,2013-12-17 17:43:00,
2013-12-17 12:48:00,20.2,17.5,29.86,SW,215,0.0,0.0,89,0.00,,,0.00,VWS V14.01,2013-12-17 17:48:00,
2013-12-17 12:57:00,20.2,17.5,29.86,South,188,0.0,0.0,89,0.00,,,0.00,VWS V14.01,2013-12-17 17:57:00,
2013-12-17 13:02:00,20.3,17.6,29.85,SSW,202,0.0,0.0,89,0.00,,,0.00,VWS V14.01,2013-12-17 18:02:00,
2013-12-17 13:08:00,20.5,17.8,29.85,SSE,167,0.0,0.0,89,0.00,,,0.00,VWS V14.01,2013-12-17 18:08:00,
2013-12-17 13:18:00,20.8,18.1,29.83,SW,233,0.0,0.0,89,0.00,,,0.00,VWS V14.01,2013-12-17 18:18:00,
2013-12-17 13:27:00,21.1,18.4,29.83,SW,227,0.0,0.0,89,0.00,,,0.00,VWS V14.01,2013-12-17 18:27:00,
2013-12-17 13:33:00,21.3,18.8,29.83,SW,219,0.0,0.0,90,0.00,,,0.00,VWS V14.01,2013-12-17 18:33:00,
2013-12-17 13:37:00,21.3,18.6,29.83,WSW,251,0.0,0.0,89,0.00,,,0.00,VWS V14.01,2013-12-17 18:37:00,
2013-12-17 13:47:00,21.8,19.3,29.83,WSW,257,0.0,0.0,90,0.00,,,0.00,VWS V14.01,2013-12-17 18:47:00,
2013-12-17 13:53:00,21.9,19.4,29.83,WSW,251,0.0,0.0,90,0.00,,,0.00,VWS V14.01,2013-12-17 18:53:00,
2013-12-17 14:02:00,22.1,19.6,29.82,SW,220,0.0,0.0,90,0.00,,,0.00,VWS V14.01,2013-12-17 19:02:00,
2013-12-17 14:07:00,22.2,19.7,29.82,SW,220,0.0,0.0,90,0.00,,,0.00,VWS V14.01,2013-12-17 19:07:00,
2013-12-17 14:12:00,22.2,19.7,29.82,SW,229,0.0,0.0,90,0.00,,,0.00,VWS V14.01,2013-12-17 19:12:00,
2013-12-17 14:17:00,22.5,20.0,29.81,SW,222,0.0,0.0,90,0.00,,,0.00,VWS V14.01,2013-12-17 19:17:00,
2013-12-17 14:22:00,22.9,20.4,29.81,SW,217,0.0,0.0,90,0.00,,,0.00,VWS V14.01,2013-12-17 19:22:00,
2013-12-17 14:28:00,23.0,20.5,29.81,SSW,209,0.0,0.0,90,0.00,,,0.00,VWS V14.01,2013-12-17 19:28:00,
2013-12-17 14:33:00,23.3,20.8,29.82,WSW,247,0.0,0.0,90,0.00,,,0.00,VWS V14.01,2013-12-17 19:33:00,
2013-12-17 14:38:00,23.5,21.0,29.82,SW,229,0.0,0.0,90,0.00,,,0.00,VWS V14.01,2013-12-17 19:38:00,
2013-12-17 14:48:00,23.6,21.1,29.82,SW,229,0.0,0.0,90,0.00,,,0.00,VWS V14.01,2013-12-17 19:48:00,
2013-12-17 14:53:00,23.9,21.4,29.82,West,260,0.0,0.0,90,0.00,,,0.00,VWS V14.01,2013-12-17 19:53:00,
2013-12-17 14:58:00,24.1,21.6,29.82,SW,234,0.0,0.0,90,0.00,,,0.00,VWS V14.01,2013-12-17 19:58:00,
2013-12-17 15:03:00,24.2,21.7,29.82,SW,217,0.0,0.0,90,0.00,,,0.00,VWS V14.01,2013-12-17 20:03:00,
2013-12-17 15:08:00,24.4,21.9,29.82,SW,227,0.0,0.0,90,0.00,,,0.00,VWS V14.01,2013-12-17 20:08:00,
2013-12-17 15:13:00,24.5,21.7,29.82,WSW,237,0.0,0.0,89,0.00,,,0.00,VWS V14.01,2013-12-17 20:13:00,
2013-12-17 15:18:00,24.7,21.9,29.82,SW,217,0.0,0.0,89,0.00,,,0.00,VWS V14.01,2013-12-17 20:18:00,
2013-12-17 15:23:00,24.7,21.9,29.82,SW,224,0.0,0.0,89,0.00,,,0.00,VWS V14.01,2013-12-17 20:23:00,
2013-12-17 15:33:00,24.8,22.0,29.83,SW,234,0.0,0.0,89,0.00,,,0.00,VWS V14.01,2013-12-17 20:33:00,
2013-12-17 15:38:00,25.0,22.2,29.83,WSW,250,0.0,0.0,89,0.00,,,0.00,VWS V14.01,2013-12-17 20:38:00,
2013-12-17 15:43:00,25.0,22.0,29.83,SW,227,0.0,0.0,88,0.00,,,0.00,VWS V14.01,2013-12-17 20:43:00,
2013-12-17 15:48:00,25.1,22.0,29.83,SW,226,0.0,0.0,88,0.00,,,0.00,VWS V14.01,2013-12-17 20:48:00,
2013-12-17 15:53:00,25.1,22.0,29.83,SW,230,0.0,0.0,88,0.00,,,0.00,VWS V14.01,2013-12-17 20:53:00,
2013-12-17 15:58:00,25.3,22.2,29.83,SW,230,0.0,0.0,88,0.00,,,0.00,VWS V14.01,2013-12-17 20:58:00,
2013-12-17 16:03:00,25.4,22.4,29.83,SW,223,0.0,0.0,88,0.00,,,0.00,VWS V14.01,2013-12-17 21:03:00,
2013-12-17 16:08:00,25.4,22.4,29.83,SW,234,0.0,0.0,88,0.00,,,0.00,VWS V14.01,2013-12-17 21:08:00,
2013-12-17 16:17:00,25.6,22.5,29.83,SSW,196,0.0,0.0,88,0.00,,,0.00,VWS V14.01,2013-12-17 21:17:00,
2013-12-17 16:23:00,25.6,22.5,29.83,SW,215,0.0,0.0,88,0.00,,,0.00,VWS V14.01,2013-12-17 21:23:00,
2013-12-17 16:28:00,25.7,22.6,29.83,SW,219,0.0,0.0,88,0.00,,,0.00,VWS V14.01,2013-12-17 21:28:00,
2013-12-17 16:38:00,26.0,22.9,29.83,SSW,210,0.0,0.0,88,0.00,,,0.00,VWS V14.01,2013-12-17 21:38:00,
2013-12-17 16:48:00,26.3,23.2,29.83,WSW,244,0.0,0.0,88,0.00,,,0.00,VWS V14.01,2013-12-17 21:48:00,
2013-12-17 16:53:00,26.4,23.3,29.83,WSW,241,0.0,0.0,88,0.00,,,0.00,VWS V14.01,2013-12-17 21:53:00,
2013-12-17 17:03:00,26.6,23.3,29.84,SW,216,0.0,0.0,87,0.00,,,0.00,VWS V14.01,2013-12-17 22:03:00,
2013-12-17 17:08:00,26.7,23.4,29.84,SW,230,0.0,0.0,87,0.00,,,0.00,VWS V14.01,2013-12-17 22:08:00,
2013-12-17 17:13:00,26.7,23.4,29.84,SW,223,0.0,0.0,87,0.00,,,0.00,VWS V14.01,2013-12-17 22:13:00,
2013-12-17 17:18:00,26.7,23.4,29.84,SW,232,0.0,0.0,87,0.00,,,0.00,VWS V14.01,2013-12-17 22:18:00,
2013-12-17 17:23:00,26.9,23.6,29.84,SW,234,0.0,0.0,87,0.00,,,0.00,VWS V14.01,2013-12-17 22:23:00,
2013-12-17 17:28:00,26.9,23.6,29.84,SW,229,0.0,0.0,87,0.00,,,0.00,VWS V14.01,2013-12-17 22:28:00,
2013-12-17 17:33:00,27.0,23.6,29.85,WSW,248,0.0,0.0,87,0.00,,,0.00,VWS V14.01,2013-12-17 22:33:00,
2013-12-17 17:38:00,27.2,23.9,29.85,SW,232,0.0,0.0,87,0.00,,,0.00,VWS V14.01,2013-12-17 22:38:00,
2013-12-17 17:48:00,27.0,23.4,29.85,South,191,0.0,0.0,86,0.00,,,0.00,VWS V14.01,2013-12-17 22:48:00,
2013-12-17 17:53:00,26.9,23.3,29.85,SW,227,0.0,0.0,86,0.00,,,0.00,VWS V14.01,2013-12-17 22:53:00,
2013-12-17 17:58:00,26.7,23.1,29.85,SW,233,0.0,0.0,86,0.00,,,0.00,VWS V14.01,2013-12-17 22:58:00,
2013-12-17 18:08:00,26.6,23.0,29.86,SSW,195,0.0,0.0,86,0.00,,,0.00,VWS V14.01,2013-12-17 23:08:00,
2013-12-17 18:18:00,26.7,23.1,29.86,SW,234,0.0,0.0,86,0.00,,,0.00,VWS V14.01,2013-12-17 23:18:00,
2013-12-17 18:23:00,26.7,23.1,29.86,SW,234,0.0,0.0,86,0.00,,,0.00,VWS V14.01,2013-12-17 23:23:00,
2013-12-17 18:33:00,26.3,22.7,29.87,SW,224,0.0,0.0,86,0.00,,,0.00,VWS V14.01,2013-12-17 23:33:00,
2013-12-17 18:42:00,26.0,22.7,29.87,SSW,208,0.0,0.0,87,0.00,,,0.00,VWS V14.01,2013-12-17 23:42:00,
2013-12-17 18:47:00,26.0,22.7,29.87,SSW,209,0.0,0.0,87,0.00,,,0.00,VWS V14.01,2013-12-17 23:47:00,
2013-12-17 18:57:00,25.8,22.5,29.87,SW,215,0.0,0.0,87,0.00,,,0.00,VWS V14.01,2013-12-17 23:57:00,
2013-12-17 19:03:00,25.7,22.4,29.88,SW,217,0.0,0.0,87,0.00,,,0.00,VWS V14.01,2013-12-18 00:03:00,
2013-12-17 19:08:00,25.6,22.3,29.88,SW,219,0.0,0.0,87,0.00,,,0.00,VWS V14.01,2013-12-18 00:08:00,
2013-12-17 19:17:00,25.4,22.1,29.88,SSW,205,0.0,0.0,87,0.00,,,0.00,VWS V14.01,2013-12-18 00:17:00,
2013-12-17 19:23:00,25.3,22.0,29.88,WSW,240,0.0,0.0,87,0.00,,,0.00,VWS V14.01,2013-12-18 00:23:00,
2013-12-17 19:32:00,25.1,21.8,29.89,WSW,253,0.0,0.0,87,0.00,,,0.00,VWS V14.01,2013-12-18 00:32:00,
2013-12-17 19:37:00,25.1,21.8,29.89,SSW,206,0.0,0.0,87,0.00,,,0.00,VWS V14.01,2013-12-18 00:37:00,
2013-12-17 19:48:00,25.0,21.7,29.89,SW,217,0.0,0.0,87,0.00,,,0.00,VWS V14.01,2013-12-18 00:48:00,
2013-12-17 19:53:00,25.0,21.7,29.89,SSW,200,0.0,0.0,87,0.00,,,0.00,VWS V14.01,2013-12-18 00:53:00,
2013-12-17 20:03:00,24.4,21.1,29.89,SSW,199,0.0,0.0,87,0.00,,,0.00,VWS V14.01,2013-12-18 01:03:00,
2013-12-17 20:08:00,24.1,20.5,29.89,SSW,213,0.0,0.0,86,0.00,,,0.00,VWS V14.01,2013-12-18 01:08:00,
2013-12-17 20:18:00,23.6,20.3,29.89,SSW,213,0.0,0.0,87,0.00,,,0.00,VWS V14.01,2013-12-18 01:18:00,
2013-12-17 20:28:00,23.3,19.7,29.89,SSW,213,0.0,0.0,86,0.00,,,0.00,VWS V14.01,2013-12-18 01:28:00,
2013-12-17 20:33:00,23.0,19.5,29.90,SW,217,0.0,0.0,86,0.00,,,0.00,VWS V14.01,2013-12-18 01:33:00,
2013-12-17 20:38:00,22.7,19.1,29.90,SW,222,0.0,0.0,86,0.00,,,0.00,VWS V14.01,2013-12-18 01:38:00,
2013-12-17 20:48:00,22.7,19.1,29.90,SW,224,0.0,0.0,86,0.00,,,0.00,VWS V14.01,2013-12-18 01:48:00,
2013-12-17 20:58:00,22.9,19.4,29.90,SW,219,0.0,0.0,86,0.00,,,0.00,VWS V14.01,2013-12-18 01:58:00,
2013-12-17 21:03:00,22.9,19.1,29.91,SW,223,0.0,0.0,85,0.00,,,0.00,VWS V14.01,2013-12-18 02:03:00,
2013-12-17 21:08:00,23.0,18.9,29.91,SW,233,0.0,0.0,84,0.00,,,0.00,VWS V14.01,2013-12-18 02:08:00,
2013-12-17 21:13:00,23.0,18.6,29.91,SW,224,0.0,0.0,83,0.00,,,0.00,VWS V14.01,2013-12-18 02:13:00,
2013-12-17 21:23:00,22.9,18.2,29.91,SW,226,0.0,0.0,82,0.00,,,0.00,VWS V14.01,2013-12-18 02:23:00,
2013-12-17 21:28:00,22.9,18.2,29.91,WSW,243,0.0,0.0,82,0.00,,,0.00,VWS V14.01,2013-12-18 02:28:00,
2013-12-17 21:33:00,22.7,17.8,29.91,SW,216,0.0,0.0,81,0.00,,,0.00,VWS V14.01,2013-12-18 02:33:00,
2013-12-17 21:38:00,22.5,17.6,29.91,SW,230,0.0,0.0,81,0.00,,,0.00,VWS V14.01,2013-12-18 02:38:00,
2013-12-17 21:43:00,22.5,17.6,29.91,SW,216,0.0,0.0,81,0.00,,,0.00,VWS V14.01,2013-12-18 02:43:00,
2013-12-17 21:48:00,22.7,17.5,29.91,SW,224,0.0,0.0,80,0.00,,,0.00,VWS V14.01,2013-12-18 02:48:00,
2013-12-17 21:53:00,22.7,17.2,29.91,SSW,213,0.0,0.0,79,0.00,,,0.00,VWS V14.01,2013-12-18 02:53:00,
2013-12-17 22:03:00,22.4,16.9,29.91,SW,220,0.0,0.0,79,0.00,,,0.00,VWS V14.01,2013-12-18 03:03:00,
2013-12-17 22:08:00,22.2,16.4,29.91,SW,222,0.0,0.0,78,0.00,,,0.00,VWS V14.01,2013-12-18 03:08:00,
2013-12-17 22:18:00,21.6,16.1,29.92,SW,219,0.0,0.0,79,0.00,,,0.00,VWS V14.01,2013-12-18 03:18:00,
2013-12-17 22:23:00,21.4,15.9,29.92,SW,224,0.0,0.0,79,0.00,,BKN028,0.00,VWS V14.01,2013-12-18 03:23:00,
2013-12-17 22:28:00,21.0,15.5,29.92,SW,215,0.0,0.0,79,0.00,,BKN028,0.00,VWS V14.01,2013-12-18 03:28:00,
2013-12-17 22:33:00,21.0,15.5,29.92,SW,233,0.0,0.0,79,0.00,,BKN028,0.00,VWS V14.01,2013-12-18 03:33:00,
2013-12-17 22:38:00,21.0,15.5,29.92,SW,229,0.0,0.0,79,0.00,,BKN028,0.00,VWS V14.01,2013-12-18 03:38:00,
2013-12-17 22:48:00,20.8,15.3,29.93,SW,223,0.0,0.0,79,0.00,,BKN028,0.00,VWS V14.01,2013-12-18 03:48:00,
2013-12-17 22:58:00,20.6,14.8,29.93,SW,216,0.0,0.0,78,0.00,,BKN028,0.00,VWS V14.01,2013-12-18 03:58:00,
2013-12-17 23:03:00,20.3,14.6,29.93,SW,224,0.0,0.0,78,0.00,,BKN028,0.00,VWS V14.01,2013-12-18 04:03:00,
2013-12-17 23:08:00,20.2,14.4,29.93,SW,236,0.0,0.0,78,0.00,,BKN028,0.00,VWS V14.01,2013-12-18 04:08:00,
2013-12-17 23:13:00,20.2,14.4,29.93,SW,223,0.0,0.0,78,0.00,,BKN028,0.00,VWS V14.01,2013-12-18 04:13:00,
2013-12-17 23:23:00,20.5,14.4,29.93,SW,215,0.0,0.0,77,0.00,,BKN028,0.00,VWS V14.01,2013-12-18 04:23:00,
2013-12-17 23:33:00,20.5,14.4,29.93,SW,217,0.0,0.0,77,0.00,,BKN028,0.00,VWS V14.01,2013-12-18 04:33:00,
2013-12-17 23:37:00,20.5,14.4,29.93,SW,227,0.0,0.0,77,0.00,,BKN028,0.00,VWS V14.01,2013-12-18 04:37:00,
2013-12-17 23:42:00,20.5,14.4,29.93,SW,236,0.0,0.0,77,0.00,,BKN028,0.00,VWS V14.01,2013-12-18 04:42:00,
2013-12-17 23:47:00,20.5,14.4,29.93,SW,216,0.0,0.0,77,0.00,,BKN028,0.00,VWS V14.01,2013-12-18 04:47:00,
2013-12-17 23:52:00,20.5,14.4,29.93,SW,233,0.0,0.0,77,0.00,,BKN028,0.00,VWS V14.01,2013-12-18 04:52:00,
2013-12-17 23:57:00,20.6,14.6,29.93,SW,232,0.0,0.0,77,0.00,,BKN028,0.00,VWS V14.01,2013-12-18 04:57:00,